Time;durP1;ratioP1;P1;durP2;ratioP2;P2;SDS_P1;SDS_P2;PMS_P1;PMS_P2;Temp;Humidity;BMP_temperature;BMP_pressure;BME280_temperature;BME280_humidity;BME280_pressure;Samples;Min_cycle;Max_cycle;Signal;HPM_P1;HPM_P2
2020/12/06 00:01:28;;;;;;;90.10;27.15;;;;;;;1.02;81.71;94557.44;5010989;28;20046;-72
2020/12/06 00:03:55;;;;;;;63.70;25.20;;;;;;;1.01;81.89;94547.84;5010377;28;20049;-72
2020/12/06 00:06:21;;;;;;;85.63;25.60;;;;;;;0.97;81.85;94538.81;5010796;28;20053;-71
2020/12/06 00:08:47;;;;;;;60.40;24.52;;;;;;;0.92;81.92;94546.16;5009468;28;20057;-72
2020/12/06 00:11:17;;;;;;;70.57;27.10;;;;;;;0.94;82.36;94571.59;5006902;28;20054;-72
2020/12/06 00:13:43;;;;;;;62.55;26.35;;;;;;;0.99;82.28;94573.34;4998311;28;20674;-72
2020/12/06 00:16:13;;;;;;;60.70;26.02;;;;;;;1.03;82.40;94552.88;4990697;28;20043;-72
2020/12/06 00:18:39;;;;;;;60.53;26.02;;;;;;;1.08;82.25;94550.09;4997417;28;20046;-72
2020/12/06 00:21:06;;;;;;;58.08;24.95;;;;;;;1.10;82.31;94557.81;5009797;28;20046;-72
2020/12/06 00:23:32;;;;;;;58.60;26.10;;;;;;;1.14;82.22;94564.97;5004867;28;20571;-72
2020/12/06 00:25:58;;;;;;;58.75;27.23;;;;;;;1.16;82.09;94541.34;4990787;28;20066;-72
2020/12/06 00:28:24;;;;;;;57.30;25.38;;;;;;;1.11;82.10;94549.50;5004372;28;20130;-72
2020/12/06 00:30:50;;;;;;;63.75;26.80;;;;;;;1.13;82.01;94544.63;4999138;28;20124;-72
2020/12/06 00:33:16;;;;;;;55.17;25.75;;;;;;;1.14;81.94;94548.88;5006824;28;20097;-72
2020/12/06 00:35:42;;;;;;;52.50;26.30;;;;;;;1.15;82.02;94539.75;5007333;28;20519;-72
2020/12/06 00:38:08;;;;;;;57.17;25.75;;;;;;;1.15;81.85;94552.34;5008461;28;20042;-72
2020/12/06 00:40:34;;;;;;;58.42;25.35;;;;;;;1.08;81.73;94539.38;4990616;28;20053;-72
2020/12/06 00:43:01;;;;;;;47.63;23.02;;;;;;;1.08;81.78;94535.91;4990342;28;20050;-72
2020/12/06 00:45:27;;;;;;;47.72;23.88;;;;;;;1.03;81.54;94542.16;4990219;28;20489;-72
2020/12/06 00:47:53;;;;;;;55.97;25.02;;;;;;;1.02;81.47;94521.81;4999398;28;20050;-72
2020/12/06 00:50:19;;;;;;;53.38;23.92;;;;;;;0.97;81.51;94525.41;5009178;28;20140;-72
2020/12/06 00:52:45;;;;;;;48.13;23.58;;;;;;;1.00;81.54;94505.25;5007596;28;20049;-72
2020/12/06 00:55:11;;;;;;;47.28;22.83;;;;;;;0.97;81.55;94508.53;5009398;28;20074;-72
2020/12/06 00:57:37;;;;;;;51.85;24.80;;;;;;;0.96;81.47;94512.31;5019993;28;20052;-72
2020/12/06 01:00:05;;;;;;;45.53;23.10;;;;;;;0.95;81.46;94500.00;5014919;28;20058;-72
2020/12/06 01:02:31;;;;;;;48.75;23.45;;;;;;;0.96;81.38;94498.91;4988831;28;20054;-72
2020/12/06 01:04:57;;;;;;;46.60;22.70;;;;;;;0.97;81.38;94506.63;4999786;28;20108;-72
2020/12/06 01:07:23;;;;;;;46.95;23.17;;;;;;;0.97;81.34;94519.25;5009077;28;20057;-72
2020/12/06 01:09:49;;;;;;;50.97;23.85;;;;;;;0.97;81.26;94527.28;5000139;28;20042;-72
2020/12/06 01:12:16;;;;;;;48.22;22.27;;;;;;;0.96;81.28;94493.56;4989600;28;20103;-72
2020/12/06 01:14:42;;;;;;;42.70;21.50;;;;;;;0.94;81.21;94490.38;4990825;28;20058;-72
2020/12/06 01:17:08;;;;;;;43.13;22.83;;;;;;;0.93;81.24;94494.16;4989306;28;20077;-72
2020/12/06 01:19:34;;;;;;;42.33;21.90;;;;;;;0.89;81.42;94490.47;4989946;28;20458;-72
2020/12/06 01:22:00;;;;;;;40.60;20.25;;;;;;;0.92;81.21;94463.09;4989425;28;20143;-72
2020/12/06 01:24:26;;;;;;;42.47;22.08;;;;;;;0.91;81.03;94515.09;4997985;28;20132;-72
2020/12/06 01:26:51;;;;;;;40.40;20.73;;;;;;;0.92;81.06;94504.06;4995643;28;20054;-72
2020/12/06 01:29:18;;;;;;;41.50;21.83;;;;;;;0.95;81.03;94481.25;5005272;28;20080;-72
2020/12/06 01:31:46;;;;;;;41.03;20.83;;;;;;;0.99;80.94;94476.84;5008858;28;20460;-72
2020/12/06 01:34:12;;;;;;;45.08;21.90;;;;;;;1.00;81.11;94486.50;5006720;28;20050;-72
2020/12/06 01:36:38;;;;;;;49.25;23.45;;;;;;;1.00;80.97;94465.06;5009178;28;20072;-72
2020/12/06 01:39:11;;;;;;;43.53;21.30;;;;;;;0.96;81.02;94466.75;5008607;28;20486;-72
2020/12/06 01:41:37;;;;;;;38.53;21.45;;;;;;;0.99;81.02;94474.16;5010842;28;20057;-71
2020/12/06 01:44:04;;;;;;;44.08;23.02;;;;;;;0.94;80.67;94474.28;5010354;28;20052;-71
2020/12/06 01:46:31;;;;;;;53.85;25.63;;;;;;;0.90;80.78;94490.19;5005324;28;20048;-72
2020/12/06 01:48:57;;;;;;;56.38;25.65;;;;;;;0.89;81.09;94530.66;5002705;28;20622;-71
2020/12/06 01:51:23;;;;;;;50.90;25.38;;;;;;;0.87;81.22;94540.91;5001163;28;20604;-71
2020/12/06 01:53:51;;;;;;;49.17;24.88;;;;;;;0.85;81.41;94529.72;5003164;28;20053;-72
2020/12/06 01:56:18;;;;;;;53.42;25.52;;;;;;;0.86;81.70;94521.38;5002105;28;20045;-71
2020/12/06 01:58:44;;;;;;;55.97;26.25;;;;;;;0.88;81.64;94521.06;5002945;28;20061;-72
2020/12/06 02:01:11;;;;;;;59.13;27.52;;;;;;;0.93;81.86;94500.28;4986215;28;20046;-72
2020/12/06 02:03:39;;;;;;;57.45;28.25;;;;;;;0.97;81.81;94489.78;4997388;28;20050;-72
2020/12/06 02:06:06;;;;;;;57.15;27.33;;;;;;;0.99;81.79;94466.94;5002714;28;20050;-71
2020/12/06 02:08:33;;;;;;;61.83;27.35;;;;;;;1.04;81.77;94441.88;5001259;28;20498;-71
2020/12/06 02:10:59;;;;;;;54.30;25.75;;;;;;;1.01;81.79;94448.66;5001038;28;20061;-71
2020/12/06 02:13:25;;;;;;;55.15;25.70;;;;;;;1.04;81.78;94433.84;4996775;28;20121;-71
2020/12/06 02:15:51;;;;;;;55.67;26.33;;;;;;;1.02;81.57;94442.19;4984005;28;20054;-71
2020/12/06 02:18:18;;;;;;;55.75;25.98;;;;;;;1.06;81.64;94481.81;5002658;28;20057;-72
2020/12/06 02:20:44;;;;;;;59.65;27.77;;;;;;;0.91;81.70;94490.97;5000980;28;20581;-72
2020/12/06 02:23:11;;;;;;;57.67;26.17;;;;;;;0.86;82.34;94483.06;5001200;28;20053;-71
2020/12/06 02:25:38;;;;;;;62.30;28.40;;;;;;;0.74;82.80;94471.00;4986758;28;20709;-72
2020/12/06 02:28:04;;;;;;;63.78;27.10;;;;;;;0.75;82.91;94456.50;4986959;28;20057;-71
2020/12/06 02:30:31;;;;;;;57.22;25.92;;;;;;;0.76;82.94;94442.00;4991360;28;20156;-71
2020/12/06 02:32:57;;;;;;;61.55;27.67;;;;;;;0.84;82.77;94463.81;5000665;28;20045;-72
2020/12/06 02:35:23;;;;;;;62.30;26.75;;;;;;;0.91;82.68;94453.47;4997520;28;20692;-72
2020/12/06 02:37:50;;;;;;;56.35;26.50;;;;;;;0.86;82.49;94430.25;4992480;28;20046;-72
2020/12/06 02:40:16;;;;;;;57.60;27.63;;;;;;;0.96;82.51;94424.66;5003808;28;20387;-71
2020/12/06 02:42:42;;;;;;;59.28;26.23;;;;;;;1.02;82.13;94395.84;5018294;28;20087;-72
2020/12/06 02:45:08;;;;;;;55.45;25.42;;;;;;;1.06;82.02;94391.47;5007992;28;20046;-71
2020/12/06 02:47:35;;;;;;;50.30;24.35;;;;;;;1.09;81.62;94369.41;4997081;28;20060;-72
2020/12/06 02:50:01;;;;;;;50.92;24.23;;;;;;;1.08;81.36;94389.25;5002922;28;20053;-72
2020/12/06 02:52:27;;;;;;;56.03;27.45;;;;;;;1.09;81.25;94412.28;5010189;28;20563;-72
2020/12/06 02:54:54;;;;;;;63.35;27.83;;;;;;;1.04;81.06;94415.09;5014900;28;20048;-72
2020/12/06 02:57:20;;;;;;;61.83;27.52;;;;;;;1.04;81.33;94420.44;4997889;28;20042;-72
2020/12/06 02:59:46;;;;;;;60.88;28.42;;;;;;;1.06;81.35;94434.34;5008144;28;20503;-72
2020/12/06 03:02:12;;;;;;;66.03;27.92;;;;;;;1.06;81.43;94423.63;5010913;28;20053;-72
2020/12/06 03:04:37;;;;;;;64.35;29.75;;;;;;;1.02;81.25;94380.56;5007756;28;20038;-71
2020/12/06 03:07:03;;;;;;;65.53;28.33;;;;;;;1.06;81.13;94371.91;5014631;28;20050;-72
2020/12/06 03:09:29;;;;;;;64.03;27.80;;;;;;;1.04;81.14;94364.16;4991539;28;20123;-71
2020/12/06 03:11:56;;;;;;;61.47;27.88;;;;;;;0.98;81.03;94376.09;5001524;28;20058;-71
2020/12/06 03:14:22;;;;;;;63.20;27.85;;;;;;;0.90;81.39;94366.13;5003336;28;20057;-72
2020/12/06 03:16:48;;;;;;;64.15;27.70;;;;;;;0.92;81.58;94339.81;5004405;28;20041;-71
2020/12/06 03:19:14;;;;;;;64.28;27.65;;;;;;;0.93;81.59;94325.31;4981743;28;20061;-72
2020/12/06 03:21:40;;;;;;;61.63;28.27;;;;;;;0.97;81.43;94299.50;4994653;28;20045;-72
2020/12/06 03:24:06;;;;;;;60.85;27.85;;;;;;;1.00;81.44;94320.34;5001598;28;20409;-72
2020/12/06 03:26:32;;;;;;;64.50;27.20;;;;;;;1.01;81.17;94319.22;4993075;28;20042;-72
2020/12/06 03:28:59;;;;;;;59.42;27.08;;;;;;;1.01;81.10;94324.59;5001806;28;20120;-72
2020/12/06 03:31:25;;;;;;;61.30;27.25;;;;;;;1.00;81.18;94323.00;5003416;28;20042;-72
2020/12/06 03:33:51;;;;;;;63.78;28.08;;;;;;;1.01;81.29;94320.03;4998182;28;20150;-72
2020/12/06 03:36:17;;;;;;;60.33;27.83;;;;;;;1.00;81.37;94296.22;4981740;28;20046;-72
2020/12/06 03:38:43;;;;;;;61.03;27.55;;;;;;;1.00;81.52;94304.25;4981437;28;20054;-72
2020/12/06 03:41:12;;;;;;;62.13;28.05;;;;;;;1.01;81.20;94319.22;4982215;28;20052;-72
2020/12/06 03:43:38;;;;;;;66.30;29.67;;;;;;;0.88;81.39;94352.25;5001673;28;20053;-72
2020/12/06 03:46:04;;;;;;;61.30;27.05;;;;;;;0.90;81.95;94331.31;4993684;28;20042;-72
2020/12/06 03:48:30;;;;;;;56.22;26.48;;;;;;;0.82;82.17;94337.38;4994007;28;20038;-72
2020/12/06 03:50:56;;;;;;;53.50;25.92;;;;;;;0.80;82.23;94334.22;5000201;28;20120;-72
2020/12/06 03:53:22;;;;;;;55.47;25.40;;;;;;;0.69;82.06;94329.13;5001041;28;20046;-72
2020/12/06 03:55:48;;;;;;;59.08;26.05;;;;;;;0.56;82.48;94332.63;4997029;28;20104;-72
2020/12/06 03:58:14;;;;;;;57.75;26.60;;;;;;;0.58;82.48;94338.50;5000539;28;20066;-72
2020/12/06 04:00:40;;;;;;;55.72;25.52;;;;;;;0.64;82.46;94326.56;4991730;28;20046;-72
2020/12/06 04:03:07;;;;;;;53.58;25.45;;;;;;;0.68;82.46;94310.66;4981781;28;20055;-72
2020/12/06 04:05:33;;;;;;;58.15;26.90;;;;;;;0.69;82.02;94307.69;4991224;28;20046;-71
2020/12/06 04:07:59;;;;;;;60.00;28.10;;;;;;;0.72;82.02;94308.97;4981196;28;20145;-72
2020/12/06 04:10:25;;;;;;;52.20;24.50;;;;;;;0.77;81.80;94314.19;4988674;28;20073;-71
2020/12/06 04:12:51;;;;;;;53.67;25.63;;;;;;;0.74;81.50;94318.28;5000915;28;20112;-72
2020/12/06 04:15:17;;;;;;;59.42;26.60;;;;;;;0.69;81.66;94307.69;5000521;28;20129;-72
2020/12/06 04:17:43;;;;;;;55.30;24.80;;;;;;;0.72;81.61;94311.63;5001042;28;20583;-72
2020/12/06 04:20:09;;;;;;;56.38;27.02;;;;;;;0.71;81.75;94305.50;4997399;28;20878;-72
2020/12/06 04:22:35;;;;;;;54.75;25.80;;;;;;;0.72;81.97;94300.91;4980899;28;20602;-72
2020/12/06 04:25:01;;;;;;;56.97;25.05;;;;;;;0.75;81.59;94295.75;4994513;28;20037;-72
2020/12/06 04:27:27;;;;;;;59.30;25.25;;;;;;;0.75;81.35;94322.53;5000594;28;20045;-72
2020/12/06 04:29:53;;;;;;;56.22;25.65;;;;;;;0.75;81.24;94311.03;5000569;28;20598;-72
2020/12/06 04:32:19;;;;;;;58.90;27.23;;;;;;;0.74;81.39;94309.47;5000148;28;20054;-72
2020/12/06 04:34:46;;;;;;;53.08;25.60;;;;;;;0.76;81.46;94316.06;4991265;28;20735;-71
2020/12/06 04:37:13;;;;;;;60.15;26.27;;;;;;;0.78;81.47;94342.56;4981522;28;20074;-72
2020/12/06 04:39:39;;;;;;;60.65;27.48;;;;;;;0.82;81.17;94332.03;4993228;28;20446;-72
2020/12/06 04:42:05;;;;;;;58.90;26.77;;;;;;;0.78;81.17;94332.66;5000167;28;20737;-72
2020/12/06 04:44:31;;;;;;;55.88;24.70;;;;;;;0.74;81.11;94342.41;4994450;28;20056;-72
2020/12/06 04:46:59;;;;;;;57.15;27.35;;;;;;;0.73;81.31;94338.13;5004352;28;20053;-72
2020/12/06 04:49:30;;;;;;;56.58;26.10;;;;;;;0.74;81.38;94337.03;5003555;28;20054;-72
2020/12/06 04:51:57;;;;;;;56.40;26.35;;;;;;;0.77;81.42;94341.78;4995646;28;20045;-72
2020/12/06 04:54:37;;;;;;;57.75;26.45;;;;;;;0.80;81.66;94339.59;5004046;28;20053;-72
2020/12/06 04:57:04;;;;;;;56.63;26.00;;;;;;;0.78;81.50;94338.00;5003061;28;20049;-72
2020/12/06 04:59:32;;;;;;;56.17;26.15;;;;;;;0.84;81.31;94368.16;5002894;28;20053;-72
2020/12/06 05:02:04;;;;;;;57.13;26.48;;;;;;;0.56;82.57;94380.06;4995766;28;20379;-72
2020/12/06 05:04:34;;;;;;;65.72;29.13;;;;;;;0.19;83.97;94393.44;4989760;28;20128;-72
2020/12/06 05:07:02;;;;;;;67.55;27.90;;;;;;;0.39;84.50;94386.06;5004024;28;20685;-72
2020/12/06 05:09:35;;;;;;;63.08;28.05;;;;;;;0.42;84.31;94367.53;4999898;28;20054;-72
2020/12/06 05:12:02;;;;;;;65.80;27.05;;;;;;;0.53;84.47;94386.81;4994924;28;20085;-71
2020/12/06 05:14:28;;;;;;;59.38;26.85;;;;;;;0.64;84.47;94382.81;5003921;28;20038;-72
2020/12/06 05:16:55;;;;;;;55.90;26.92;;;;;;;0.68;84.10;94397.19;5002927;28;20769;-71
2020/12/06 05:19:27;;;;;;;58.78;26.95;;;;;;;0.73;83.82;94399.75;4992085;28;20058;-72
2020/12/06 05:21:53;;;;;;;65.63;27.40;;;;;;;0.77;83.69;94416.78;4984162;28;20052;-71
2020/12/06 05:24:19;;;;;;;66.50;27.27;;;;;;;0.78;83.67;94407.69;4984683;28;20078;-72
2020/12/06 05:26:46;;;;;;;65.30;27.27;;;;;;;0.83;83.52;94403.28;4984404;28;20042;-71
2020/12/06 05:29:13;;;;;;;57.60;26.55;;;;;;;0.88;83.23;94390.53;5002386;28;20042;-72
2020/12/06 05:31:39;;;;;;;56.53;25.35;;;;;;;0.93;83.00;94370.88;5003196;28;20108;-72
2020/12/06 05:34:05;;;;;;;61.17;25.95;;;;;;;0.91;82.41;94373.88;5002571;28;20052;-71
2020/12/06 05:36:31;;;;;;;58.20;25.60;;;;;;;0.90;82.36;94387.56;5003512;28;20117;-72
2020/12/06 05:38:57;;;;;;;56.10;25.10;;;;;;;0.87;82.35;94391.63;5001109;28;20042;-72
2020/12/06 05:41:24;;;;;;;55.25;26.40;;;;;;;0.84;81.99;94388.81;4984809;28;20153;-72
2020/12/06 05:43:51;;;;;;;64.00;27.63;;;;;;;0.76;81.96;94392.97;4983621;28;20058;-72
2020/12/06 05:46:17;;;;;;;66.55;28.15;;;;;;;0.73;82.05;94410.47;4972627;28;20402;-72
2020/12/06 05:48:44;;;;;;;61.55;27.27;;;;;;;0.57;82.40;94405.75;4963698;28;20046;-72
2020/12/06 05:51:11;;;;;;;64.15;28.05;;;;;;;0.60;82.45;94413.19;4983001;28;20050;-72
2020/12/06 05:53:37;;;;;;;67.40;27.27;;;;;;;0.62;82.56;94409.09;4977589;28;20623;-72
2020/12/06 05:56:07;;;;;;;69.93;28.83;;;;;;;0.50;82.58;94411.53;4963766;28;20050;-72
2020/12/06 05:58:34;;;;;;;92.65;30.73;;;;;;;0.24;83.47;94405.91;4970994;28;20049;-72
2020/12/06 06:01:01;;;;;;;81.10;30.65;;;;;;;0.05;84.39;94406.03;4985226;28;20038;-72
2020/12/06 06:03:28;;;;;;;88.43;32.22;;;;;;;-0.14;85.40;94424.09;4983131;28;20512;-72
2020/12/06 06:05:56;;;;;;;106.22;31.92;;;;;;;-0.04;85.54;94418.56;4983564;28;20634;-72
2020/12/06 06:08:26;;;;;;;108.75;35.63;;;;;;;-0.34;86.77;94399.31;4963505;28;20086;-72
2020/12/06 06:11:11;;;;;;;142.90;37.80;;;;;;;-0.41;87.58;94404.28;4963703;28;20058;-72
2020/12/06 06:13:47;;;;;;;151.18;38.25;;;;;;;-0.41;87.91;94400.81;4964100;28;20055;-71
2020/12/06 06:16:15;;;;;;;149.32;38.80;;;;;;;-0.41;88.10;94406.16;4979507;28;20052;-71
2020/12/06 06:18:43;;;;;;;168.82;37.47;;;;;;;-0.44;88.18;94399.50;5000077;28;20057;-71
2020/12/06 06:21:09;;;;;;;106.05;35.42;;;;;;;-0.31;88.04;94414.78;4978706;28;20042;-71
2020/12/06 06:23:36;;;;;;;96.38;35.72;;;;;;;-0.22;87.91;94406.84;4963547;28;20055;-72
2020/12/06 06:26:03;;;;;;;100.10;33.30;;;;;;;-0.21;87.44;94416.44;4981797;28;20065;-71
2020/12/06 06:28:29;;;;;;;92.90;33.05;;;;;;;-0.06;87.29;94415.34;4982833;28;20061;-71
2020/12/06 06:30:55;;;;;;;81.40;32.42;;;;;;;0.08;87.02;94391.28;4982860;28;20567;-72
2020/12/06 06:33:22;;;;;;;86.43;32.38;;;;;;;0.19;86.59;94401.47;4983006;28;20046;-71
2020/12/06 06:35:48;;;;;;;80.30;31.63;;;;;;;0.24;86.24;94387.97;4971051;28;20058;-71
2020/12/06 06:38:14;;;;;;;91.38;33.78;;;;;;;0.27;85.66;94381.25;4980596;28;20057;-71
2020/12/06 06:40:40;;;;;;;74.88;29.27;;;;;;;0.37;85.53;94377.56;4967103;28;20059;-71
2020/12/06 06:43:06;;;;;;;69.63;29.33;;;;;;;0.41;84.98;94399.94;4967999;28;20079;-72
2020/12/06 06:45:43;;;;;;;94.97;31.45;;;;;;;0.38;84.71;94395.97;4982844;28;20050;-71
2020/12/06 06:48:16;;;;;;;;;;;;;;;0.02;85.25;94401.28;4985915;28;20041;-71
2020/12/06 06:50:47;;;;;;;85.20;31.92;;;;;;;-0.10;86.18;94401.00;4963081;28;19922;-71
2020/12/06 06:53:15;;;;;;;127.57;34.58;;;;;;;-0.04;86.29;94405.97;4963609;28;20046;-72
2020/12/06 06:55:50;;;;;;;105.85;34.22;;;;;;;0.03;86.32;94416.25;4963185;28;20050;-71
2020/12/06 06:58:17;;;;;;;144.68;37.13;;;;;;;-0.08;86.60;94412.19;4968846;28;20042;-71
2020/12/06 07:00:43;;;;;;;172.63;39.20;;;;;;;-0.08;86.86;94409.53;4981643;28;20102;-71
2020/12/06 07:03:12;;;;;;;139.07;37.22;;;;;;;-0.05;87.07;94398.25;4982191;28;20077;-71
2020/12/06 07:05:39;;;;;;;141.27;39.45;;;;;;;-0.08;87.04;94398.81;4982278;28;20046;-71
2020/12/06 07:08:12;;;;;;;143.32;38.50;;;;;;;-0.01;86.99;94412.59;4981084;28;20057;-72
2020/12/06 07:10:39;;;;;;;140.27;40.13;;;;;;;-0.14;87.49;94427.56;4963088;28;20049;-72
2020/12/06 07:13:07;;;;;;;129.43;39.78;;;;;;;-0.12;87.92;94416.56;4963406;28;20102;-71
2020/12/06 07:15:33;;;;;;;132.68;38.55;;;;;;;-0.06;87.95;94416.16;4982203;28;20050;-71
2020/12/06 07:17:59;;;;;;;139.27;38.38;;;;;;;-0.05;87.85;94422.31;4968011;28;20051;-71
2020/12/06 07:20:27;;;;;;;165.57;43.90;;;;;;;-0.11;88.17;94447.56;4981783;28;20054;-71
2020/12/06 07:22:54;;;;;;;181.63;47.58;;;;;;;-0.18;88.60;94457.88;4984124;28;20050;-71
2020/12/06 07:25:22;;;;;;;186.70;42.38;;;;;;;-0.09;88.85;94450.75;4982116;28;20038;-71
2020/12/06 07:27:48;;;;;;;176.30;39.38;;;;;;;0.00;88.59;94443.63;4974755;28;20053;-71
2020/12/06 07:30:16;;;;;;;189.68;40.85;;;;;;;-0.05;88.60;94439.16;4962779;28;20054;-71
2020/12/06 07:32:43;;;;;;;150.85;38.42;;;;;;;-0.05;88.56;94455.22;4971725;28;20077;-71
2020/12/06 07:35:10;;;;;;;121.22;38.67;;;;;;;-0.12;88.54;94472.72;4979034;28;20053;-71
2020/12/06 07:37:36;;;;;;;157.20;39.22;;;;;;;-0.16;88.92;94458.34;4966509;28;20061;-71
2020/12/06 07:40:17;;;;;;;158.60;40.28;;;;;;;-0.19;89.07;94464.31;4988568;28;20046;-71
2020/12/06 07:42:44;;;;;;;131.07;40.88;;;;;;;-0.27;89.43;94487.97;5001234;28;20049;-71
2020/12/06 07:45:10;;;;;;;145.52;39.63;;;;;;;-0.21;89.50;94490.56;4993696;28;20518;-71
2020/12/06 07:47:36;;;;;;;139.35;39.58;;;;;;;-0.13;89.46;94500.59;4986281;28;20069;-71
2020/12/06 07:50:05;;;;;;;151.35;38.38;;;;;;;-0.05;89.33;94514.09;5001709;28;20061;-71
2020/12/06 07:52:34;;;;;;;127.57;38.30;;;;;;;0.06;89.09;94529.94;4997481;28;20054;-71
2020/12/06 07:55:01;;;;;;;153.82;40.63;;;;;;;0.13;88.89;94541.84;4989670;28;20607;-71
2020/12/06 07:57:32;;;;;;;150.07;40.53;;;;;;;0.18;88.66;94533.72;4990008;28;20091;-71
2020/12/06 08:00:01;;;;;;;135.50;37.97;;;;;;;0.21;88.58;94541.16;4981810;28;20050;-71
2020/12/06 08:02:32;;;;;;;127.50;40.05;;;;;;;0.07;88.66;94558.28;4982851;28;20057;-71
2020/12/06 08:04:59;;;;;;;108.82;37.80;;;;;;;0.06;89.01;94573.56;4982611;28;20046;-71
2020/12/06 08:07:30;;;;;;;116.70;39.45;;;;;;;0.03;89.01;94590.19;4974021;28;20054;-71
2020/12/06 08:09:58;;;;;;;108.72;39.60;;;;;;;-0.05;89.31;94589.00;4984572;28;20142;-71
2020/12/06 08:12:26;;;;;;;130.65;41.13;;;;;;;-0.07;89.74;94593.03;4984017;28;20057;-71
2020/12/06 08:15:00;;;;;;;111.88;39.20;;;;;;;0.17;89.71;94585.66;5003535;28;20057;-71
2020/12/06 08:17:26;;;;;;;111.25;39.97;;;;;;;0.14;89.28;94575.53;4987422;28;20670;-71
2020/12/06 08:19:52;;;;;;;108.93;38.83;;;;;;;0.09;89.32;94562.25;4997978;28;20085;-71
2020/12/06 08:22:18;;;;;;;99.75;35.60;;;;;;;0.29;89.27;94562.97;5004968;28;20054;-71
2020/12/06 08:24:44;;;;;;;114.05;39.25;;;;;;;0.20;88.85;94555.63;4993695;28;20046;-71
2020/12/06 08:27:19;;;;;;;117.78;40.22;;;;;;;0.15;89.22;94566.41;5000439;28;20048;-71
2020/12/06 08:29:47;;;;;;;110.32;38.88;;;;;;;0.28;89.23;94578.25;5004810;28;20107;-71
2020/12/06 08:32:14;;;;;;;106.60;37.10;;;;;;;0.53;89.00;94587.69;4995000;28;20042;-72
2020/12/06 08:34:53;;;;;;;113.07;36.53;;;;;;;0.64;88.52;94594.41;4984513;28;20060;-72
2020/12/06 08:37:20;;;;;;;100.55;35.15;;;;;;;0.69;87.95;94578.25;4985866;28;20454;-72
2020/12/06 08:39:47;;;;;;;104.70;34.38;;;;;;;0.84;87.57;94589.75;4986200;28;20077;-72
2020/12/06 08:42:18;;;;;;;92.10;32.70;;;;;;;0.82;87.21;94589.25;4996067;28;20048;-72
2020/12/06 08:44:54;;;;;;;104.22;35.08;;;;;;;0.93;86.99;94585.25;5002915;28;20038;-72
2020/12/06 08:47:21;;;;;;;101.65;34.38;;;;;;;0.92;86.92;94583.69;4991979;28;20050;-72
2020/12/06 08:49:47;;;;;;;95.72;33.55;;;;;;;1.11;86.71;94579.00;5003430;28;20046;-72
2020/12/06 08:52:20;;;;;;;110.65;32.90;;;;;;;1.04;86.45;94581.25;5004415;28;20046;-72
2020/12/06 08:54:48;;;;;;;103.18;33.13;;;;;;;1.23;86.26;94583.81;5003735;28;20073;-71
2020/12/06 08:57:14;;;;;;;102.43;34.13;;;;;;;1.14;86.39;94591.78;4993260;28;20648;-71
2020/12/06 08:59:42;;;;;;;111.55;33.83;;;;;;;1.21;86.35;94597.53;5001944;28;20053;-72
2020/12/06 09:02:09;;;;;;;105.78;33.60;;;;;;;1.17;86.38;94598.44;5003949;28;20068;-71
2020/12/06 09:04:37;;;;;;;123.03;35.53;;;;;;;1.04;87.08;94602.72;4989682;28;20046;-72
2020/12/06 09:07:03;;;;;;;123.25;36.40;;;;;;;1.14;87.07;94626.63;4985605;28;20057;-71
2020/12/06 09:09:30;;;;;;;115.30;33.35;;;;;;;1.25;87.13;94625.34;4984437;28;20045;-71
2020/12/06 09:11:56;;;;;;;121.72;33.75;;;;;;;1.46;86.80;94619.50;4985552;28;20057;-72
2020/12/06 09:14:23;;;;;;;108.53;32.50;;;;;;;1.58;86.65;94610.94;4984168;28;20057;-72
2020/12/06 09:16:49;;;;;;;117.22;34.20;;;;;;;1.40;86.04;94615.34;4984049;28;20510;-72
2020/12/06 09:19:15;;;;;;;104.78;33.13;;;;;;;1.57;86.14;94615.53;5003275;28;20108;-72
2020/12/06 09:21:42;;;;;;;113.75;32.60;;;;;;;1.68;85.70;94608.81;5003423;28;20637;-71
2020/12/06 09:24:08;;;;;;;102.65;32.70;;;;;;;1.76;85.62;94629.53;4986761;28;20483;-72
2020/12/06 09:26:34;;;;;;;113.38;34.40;;;;;;;1.70;85.12;94638.81;4984577;28;20050;-71
2020/12/06 09:29:00;;;;;;;113.05;33.67;;;;;;;1.77;85.16;94630.31;5002641;28;20469;-71
2020/12/06 09:31:27;;;;;;;107.97;31.73;;;;;;;1.93;84.76;94620.03;5005539;28;20042;-72
2020/12/06 09:33:53;;;;;;;100.15;31.30;;;;;;;2.03;84.39;94598.31;5002904;28;20061;-71
2020/12/06 09:36:19;;;;;;;100.78;30.98;;;;;;;2.01;84.49;94590.56;5003143;28;20050;-72
2020/12/06 09:38:46;;;;;;;101.90;31.02;;;;;;;2.11;84.17;94576.09;5004180;28;20061;-72
2020/12/06 09:41:12;;;;;;;96.65;31.08;;;;;;;2.22;84.09;94577.41;5007763;28;20444;-72
2020/12/06 09:43:38;;;;;;;87.95;28.20;;;;;;;2.32;83.73;94584.41;5003067;28;20738;-72
2020/12/06 09:46:04;;;;;;;100.35;31.10;;;;;;;2.38;83.76;94567.06;5009788;28;20037;-72
2020/12/06 09:48:30;;;;;;;88.47;29.40;;;;;;;2.51;83.41;94563.50;5022622;28;20045;-72
2020/12/06 09:50:56;;;;;;;88.68;28.58;;;;;;;2.59;83.50;94586.91;5013076;28;20500;-72
2020/12/06 09:53:22;;;;;;;86.25;29.15;;;;;;;2.63;83.29;94584.41;5003162;28;20669;-72
2020/12/06 09:55:49;;;;;;;87.97;29.52;;;;;;;2.70;83.08;94592.78;5001489;28;20042;-77
2020/12/06 09:58:15;;;;;;;83.05;28.38;;;;;;;2.80;82.71;94592.50;5007272;28;20050;-77
2020/12/06 10:00:42;;;;;;;77.50;26.55;;;;;;;2.87;82.21;94579.41;5006899;28;20038;-73
2020/12/06 10:03:08;;;;;;;70.47;25.80;;;;;;;3.00;81.74;94582.28;5010817;28;20066;-74
2020/12/06 10:05:34;;;;;;;73.90;26.05;;;;;;;3.06;81.27;94589.09;4989107;28;20137;-73
2020/12/06 10:08:00;;;;;;;64.15;21.88;;;;;;;3.10;80.84;94598.91;4988791;28;20473;-74
2020/12/06 10:10:26;;;;;;;63.33;23.10;;;;;;;3.08;80.74;94589.56;4997055;28;20136;-74
2020/12/06 10:12:53;;;;;;;66.40;23.17;;;;;;;3.15;80.66;94592.59;5005440;28;20058;-74
2020/12/06 10:15:19;;;;;;;65.32;23.25;;;;;;;3.18;80.55;94578.50;5006797;28;20069;-74
2020/12/06 10:17:45;;;;;;;64.38;23.73;;;;;;;3.28;80.49;94554.00;5008080;28;20050;-74
2020/12/06 10:20:11;;;;;;;69.57;23.88;;;;;;;3.25;80.58;94543.88;5007377;28;20129;-74
2020/12/06 10:22:37;;;;;;;62.50;22.60;;;;;;;3.31;80.62;94537.25;5007897;28;20052;-73
2020/12/06 10:25:03;;;;;;;54.33;21.23;;;;;;;3.29;80.04;94544.84;5007520;28;20128;-74
2020/12/06 10:27:29;;;;;;;58.65;21.92;;;;;;;3.28;80.07;94547.84;5007974;28;20058;-74
2020/12/06 10:29:56;;;;;;;56.35;21.45;;;;;;;3.32;79.81;94549.59;5007606;28;20093;-74
2020/12/06 10:32:22;;;;;;;66.65;23.08;;;;;;;3.32;79.92;94549.59;5007274;28;20056;-73
2020/12/06 10:35:09;;;;;;;65.50;22.10;;;;;;;3.28;80.01;94537.06;5129042;27;20362;-73
2020/12/06 10:37:35;;;;;;;54.30;21.33;;;;;;;3.35;80.32;94537.41;5125023;27;20058;-73
2020/12/06 10:40:01;;;;;;;53.60;20.70;;;;;;;3.36;80.32;94542.47;5124172;27;20043;-73
2020/12/06 10:42:27;;;;;;;57.15;22.10;;;;;;;3.43;80.36;94546.56;5125239;28;20047;-73
2020/12/06 10:44:53;;;;;;;61.00;22.95;;;;;;;3.52;80.20;94542.00;5124493;27;20068;-74
2020/12/06 10:47:20;;;;;;;51.72;19.77;;;;;;;3.59;80.04;94526.94;5124229;27;20530;-73
2020/12/06 10:49:46;;;;;;;55.92;19.80;;;;;;;3.63;79.93;94524.41;5125100;27;20048;-73
2020/12/06 10:52:13;;;;;;;49.15;20.05;;;;;;;3.68;79.80;94540.41;5124270;27;20058;-73
2020/12/06 10:54:39;;;;;;;48.08;18.63;;;;;;;3.79;79.82;94549.72;5124460;27;20047;-74
2020/12/06 10:57:05;;;;;;;56.35;20.95;;;;;;;3.86;79.25;94541.97;5123326;27;20134;-74
2020/12/06 10:59:32;;;;;;;43.58;19.42;;;;;;;3.93;78.92;94547.66;5120165;27;20040;-74
2020/12/06 11:01:59;;;;;;;48.60;19.27;;;;;;;4.04;79.33;94531.16;5103971;27;20144;-73
2020/12/06 11:04:25;;;;;;;41.90;18.65;;;;;;;4.15;79.07;94527.78;5103271;27;20040;-73
2020/12/06 11:06:51;;;;;;;40.25;16.13;;;;;;;4.19;77.85;94523.34;5103287;27;20039;-73
2020/12/06 11:09:18;;;;;;;46.45;18.92;;;;;;;4.28;78.08;94514.44;5102902;27;20087;-73
2020/12/06 11:11:50;;;;;;;47.15;18.50;;;;;;;4.41;77.92;94505.34;5103540;27;20052;-73
2020/12/06 11:14:16;;;;;;;41.15;17.08;;;;;;;4.55;78.63;94505.16;5102010;27;20742;-73
2020/12/06 11:16:42;;;;;;;37.33;16.48;;;;;;;4.66;77.91;94503.66;5104115;27;20043;-73
2020/12/06 11:19:08;;;;;;;42.20;18.45;;;;;;;4.81;78.18;94497.72;5103102;27;20048;-73
2020/12/06 11:21:34;;;;;;;39.03;16.40;;;;;;;4.89;77.02;94515.72;5103965;27;20051;-74